Time;durP1;ratioP1;P1;durP2;ratioP2;P2;SDS_P1;SDS_P2;PMS_P1;PMS_P2;Temp;Humidity;BMP_temperature;BMP_pressure;BME280_temperature;BME280_humidity;BME280_pressure;Samples;Min_cycle;Max_cycle;Signal;HPM_P1;HPM_P2
2022/07/07 00:00:44;;;;;;;1.05;0.22;;;18.40;99.90;;;;;;5042130;28;20414;-72
2022/07/07 00:03:11;;;;;;;1.05;0.15;;;18.10;99.90;;;;;;5047128;28;20021;-74
2022/07/07 00:05:40;;;;;;;0.10;0.00;;;17.90;99.90;;;;;;5046704;28;20098;-76
2022/07/07 00:08:07;;;;;;;0.70;0.10;;;17.70;99.90;;;;;;5025835;28;20028;-77
2022/07/07 00:10:47;;;;;;;0.50;0.10;;;17.50;99.90;;;;;;5051992;28;20871;-74
2022/07/07 00:13:15;;;;;;;1.65;0.20;;;17.30;99.90;;;;;;5053418;28;20060;-75
2022/07/07 00:15:45;;;;;;;0.10;0.08;;;17.20;99.90;;;;;;5046901;28;20025;-76
2022/07/07 00:18:19;;;;;;;0.93;0.10;;;17.00;99.90;;;;;;5050976;28;20032;-75
2022/07/07 00:20:46;;;;;;;1.25;0.30;;;16.90;99.90;;;;;;5038626;28;20017;-73
2022/07/07 00:23:13;;;;;;;1.63;0.17;;;16.80;99.90;;;;;;5051275;28;20385;-73
2022/07/07 00:25:41;;;;;;;0.82;0.30;;;16.80;99.90;;;;;;5039620;28;20029;-74
2022/07/07 00:28:09;;;;;;;2.15;0.17;;;16.80;99.90;;;;;;5035449;28;20043;-71
2022/07/07 00:30:36;;;;;;;1.45;0.20;;;16.90;99.90;;;;;;5054344;28;20112;-72
2022/07/07 00:33:04;;;;;;;0.82;0.15;;;16.90;99.90;;;;;;5046855;28;20079;-72
2022/07/07 00:35:31;;;;;;;1.77;0.17;;;17.00;99.90;;;;;;5050732;28;20043;-72
2022/07/07 00:37:58;;;;;;;0.82;0.10;;;17.30;99.90;;;;;;5041103;28;20152;-72
2022/07/07 00:40:26;;;;;;;0.80;0.10;;;17.40;99.90;;;;;;5037743;28;20473;-73
2022/07/07 00:42:53;;;;;;;3.47;0.30;;;17.70;99.90;;;;;;5044760;28;20094;-71
2022/07/07 00:45:20;;;;;;;3.03;0.45;;;17.90;99.90;;;;;;5047544;28;20024;-73
2022/07/07 00:47:52;;;;;;;1.40;0.10;;;18.20;99.90;;;;;;5039819;28;20475;-72
2022/07/07 00:50:20;;;;;;;4.88;0.50;;;18.30;99.90;;;;;;5038156;28;20056;-73
2022/07/07 00:52:48;;;;;;;0.90;0.15;;;18.40;99.90;;;;;;5044880;28;20041;-73
2022/07/07 00:55:16;;;;;;;1.27;0.10;;;18.40;99.90;;;;;;5046185;28;20072;-73
2022/07/07 00:57:43;;;;;;;2.38;0.30;;;18.40;99.90;;;;;;5052324;28;20115;-73
2022/07/07 01:00:16;;;;;;;0.32;0.17;;;18.50;99.90;;;;;;5029675;28;20025;-73
2022/07/07 01:02:44;;;;;;;0.68;0.20;;;19.10;99.90;;;;;;5026079;28;20041;-74
2022/07/07 01:05:17;;;;;;;0.85;0.10;;;19.40;99.90;;;;;;5036537;28;20025;-72
2022/07/07 01:07:46;;;;;;;0.30;0.10;;;20.20;99.90;;;;;;5041671;28;20047;-74
2022/07/07 01:10:13;;;;;;;0.52;0.10;;;21.10;99.90;;;;;;5052665;28;20040;-71
2022/07/07 01:12:41;;;;;;;2.22;0.15;;;21.40;99.90;;;;;;5050344;28;20037;-71
2022/07/07 01:15:12;;;;;;;0.50;0.13;;;21.20;99.90;;;;;;5046730;28;20023;-74
2022/07/07 01:17:41;;;;;;;1.75;0.17;;;21.00;99.90;;;;;;5047224;28;20025;-74
2022/07/07 01:20:11;;;;;;;2.25;0.22;;;21.10;99.90;;;;;;5034161;28;20032;-74
2022/07/07 01:22:39;;;;;;;2.10;0.38;;;21.20;99.90;;;;;;5038236;28;20033;-74
2022/07/07 01:25:07;;;;;;;1.48;0.20;;;21.40;99.90;;;;;;5033048;28;20377;-75
2022/07/07 01:27:35;;;;;;;2.10;0.30;;;21.50;99.90;;;;;;5031006;28;20157;-72
2022/07/07 01:30:03;;;;;;;2.83;0.65;;;21.60;99.90;;;;;;5033236;28;20491;-72
2022/07/07 01:32:30;;;;;;;3.08;0.63;;;21.30;99.90;;;;;;5032181;28;20045;-72
2022/07/07 01:34:58;;;;;;;0.80;0.10;;;21.00;99.90;;;;;;5031605;28;20112;-72
2022/07/07 01:37:25;;;;;;;2.85;0.10;;;20.70;99.90;;;;;;5028830;28;20083;-73
2022/07/07 01:40:02;;;;;;;3.65;0.20;;;20.50;99.90;;;;;;5049074;28;20047;-73
2022/07/07 01:42:29;;;;;;;2.67;0.20;;;20.20;99.90;;;;;;5035448;28;20025;-73
2022/07/07 01:44:57;;;;;;;5.95;0.60;;;20.00;99.90;;;;;;5034009;28;20021;-73
2022/07/07 01:47:25;;;;;;;2.13;0.60;;;19.90;99.90;;;;;;5032699;28;20029;-73
2022/07/07 01:49:52;;;;;;;2.28;0.17;;;20.00;99.90;;;;;;5039644;28;20017;-75
2022/07/07 01:52:20;;;;;;;3.25;0.35;;;20.00;99.90;;;;;;5041719;28;20053;-77
2022/07/07 01:54:48;;;;;;;1.73;0.10;;;19.90;99.90;;;;;;5046571;28;20170;-76
2022/07/07 01:57:16;;;;;;;0.73;0.30;;;19.80;99.90;;;;;;5046335;28;20030;-74
2022/07/07 01:59:44;;;;;;;0.98;0.52;;;19.60;99.90;;;;;;5032207;28;20026;-74
2022/07/07 02:02:13;;;;;;;0.47;0.30;;;19.60;99.90;;;;;;5034100;28;20211;-77
2022/07/07 02:04:41;;;;;;;1.63;0.20;;;19.70;99.90;;;;;;5032870;28;20102;-73
2022/07/07 02:07:08;;;;;;;0.22;0.20;;;19.80;99.90;;;;;;5036492;28;20021;-75
2022/07/07 02:09:35;;;;;;;0.63;0.20;;;19.80;99.90;;;;;;5033379;28;20025;-73
2022/07/07 02:12:03;;;;;;;1.55;0.60;;;19.80;99.90;;;;;;5034653;28;20087;-73
2022/07/07 02:14:31;;;;;;;0.95;0.10;;;19.80;99.90;;;;;;5033363;28;20037;-73
2022/07/07 02:16:59;;;;;;;2.65;0.20;;;19.80;99.90;;;;;;5031645;28;20032;-72
2022/07/07 02:19:26;;;;;;;1.65;0.10;;;19.80;99.90;;;;;;5029393;28;20029;-73
2022/07/07 02:21:53;;;;;;;0.47;0.10;;;19.70;99.90;;;;;;5035886;28;20391;-72
2022/07/07 02:24:21;;;;;;;1.88;0.10;;;19.80;99.90;;;;;;5065274;28;20029;-72
2022/07/07 02:26:48;;;;;;;0.40;0.13;;;19.80;99.90;;;;;;5037850;28;20536;-71
2022/07/07 02:29:15;;;;;;;0.35;0.10;;;19.70;99.90;;;;;;5036534;28;20041;-73
2022/07/07 02:31:43;;;;;;;2.30;0.30;;;19.80;99.90;;;;;;5039445;28;20028;-72
2022/07/07 02:34:10;;;;;;;1.95;0.20;;;19.70;99.90;;;;;;5052912;28;20063;-72
2022/07/07 02:36:37;;;;;;;2.17;0.30;;;19.80;99.90;;;;;;5037692;28;20431;-74
2022/07/07 02:39:05;;;;;;;0.50;0.10;;;19.80;99.90;;;;;;5052163;28;20025;-71
2022/07/07 02:41:32;;;;;;;0.30;0.13;;;19.90;99.90;;;;;;5039729;28;20043;-71
2022/07/07 02:43:59;;;;;;;0.20;0.10;;;20.00;99.90;;;;;;5050803;28;20099;-71
2022/07/07 02:46:28;;;;;;;0.95;0.10;;;20.10;99.90;;;;;;5043399;28;20042;-74
2022/07/07 02:48:56;;;;;;;0.70;0.30;;;20.20;99.90;;;;;;5040917;28;20411;-73
2022/07/07 02:51:23;;;;;;;0.30;0.10;;;20.30;99.90;;;;;;5049467;28;20116;-70
2022/07/07 02:53:50;;;;;;;1.10;0.20;;;20.50;99.90;;;;;;5041781;28;20113;-74
2022/07/07 02:56:18;;;;;;;1.13;0.20;;;20.60;99.90;;;;;;5039915;28;20033;-72
2022/07/07 02:58:45;;;;;;;1.45;0.20;;;20.60;99.90;;;;;;5043936;28;20060;-71
2022/07/07 03:01:12;;;;;;;1.48;0.10;;;20.50;99.90;;;;;;5043999;28;20017;-72
2022/07/07 03:03:40;;;;;;;0.68;0.10;;;20.40;99.90;;;;;;5042873;28;20427;-72
2022/07/07 03:06:07;;;;;;;0.20;0.03;;;20.30;99.90;;;;;;5034658;28;20025;-73
2022/07/07 03:08:37;;;;;;;1.15;0.10;;;20.10;99.90;;;;;;5039807;28;20025;-73
2022/07/07 03:11:06;;;;;;;2.33;0.10;;;20.00;99.90;;;;;;5027091;28;20060;-73
2022/07/07 03:13:33;;;;;;;3.92;0.30;;;20.00;99.90;;;;;;5041181;28;20036;-75
2022/07/07 03:16:00;;;;;;;0.20;0.10;;;20.00;99.90;;;;;;5048669;28;20108;-72
2022/07/07 03:18:28;;;;;;;1.23;0.10;;;19.90;99.90;;;;;;5044937;28;20029;-72
2022/07/07 03:20:55;;;;;;;0.93;0.30;;;19.90;99.90;;;;;;5035864;28;20048;-73
2022/07/07 03:23:22;;;;;;;0.20;0.05;;;19.90;99.90;;;;;;5041403;28;20048;-73
2022/07/07 03:25:50;;;;;;;0.45;0.10;;;19.90;99.90;;;;;;5031109;28;20060;-72
2022/07/07 03:28:17;;;;;;;1.58;0.20;;;19.90;99.90;;;;;;5031592;28;20033;-72
2022/07/07 03:30:44;;;;;;;0.77;0.03;;;19.90;99.90;;;;;;5032633;28;20242;-72
2022/07/07 03:33:12;;;;;;;3.08;0.40;;;20.00;99.90;;;;;;5030867;28;20033;-72
2022/07/07 03:35:40;;;;;;;0.13;0.10;;;20.00;99.90;;;;;;5037678;28;20505;-72
2022/07/07 03:38:07;;;;;;;0.13;0.10;;;20.00;99.90;;;;;;5040633;28;20044;-72
2022/07/07 03:40:35;;;;;;;0.57;0.03;;;20.00;99.90;;;;;;5033277;28;20056;-72
2022/07/07 03:43:02;;;;;;;0.77;0.22;;;20.00;99.90;;;;;;5031913;28;20098;-72
2022/07/07 03:45:30;;;;;;;0.82;0.10;;;20.00;99.90;;;;;;5040997;28;20026;-71
2022/07/07 03:47:57;;;;;;;0.47;0.10;;;20.00;99.90;;;;;;5032307;28;20040;-72
2022/07/07 03:50:25;;;;;;;1.67;0.30;;;20.00;99.90;;;;;;5030674;28;20479;-74
2022/07/07 03:52:52;;;;;;;0.30;0.20;;;19.90;99.90;;;;;;5030769;28;20075;-73
2022/07/07 03:55:19;;;;;;;0.32;0.10;;;19.90;99.90;;;;;;5030492;28;20074;-72
2022/07/07 03:57:47;;;;;;;0.30;0.10;;;19.90;99.90;;;;;;5030237;28;20087;-72
2022/07/07 04:00:14;;;;;;;0.68;0.10;;;19.90;99.90;;;;;;5031827;28;20105;-72
2022/07/07 04:02:42;;;;;;;0.85;0.10;;;19.90;99.90;;;;;;5030005;28;20048;-71
2022/07/07 04:05:09;;;;;;;0.00;0.00;;;19.80;99.90;;;;;;5040205;28;20109;-73
2022/07/07 04:07:36;;;;;;;1.55;0.10;;;19.90;99.90;;;;;;5015316;28;20021;-72
2022/07/07 04:10:04;;;;;;;1.08;0.10;;;19.90;99.90;;;;;;5042750;28;20047;-70
2022/07/07 04:12:32;;;;;;;1.48;0.40;;;19.80;99.90;;;;;;5055786;28;20040;-71
2022/07/07 04:14:59;;;;;;;1.85;0.13;;;19.80;99.90;;;;;;5030152;28;20107;-72
2022/07/07 04:17:27;;;;;;;1.10;0.25;;;19.80;99.90;;;;;;5028759;28;20053;-70
2022/07/07 04:19:54;;;;;;;0.95;0.13;;;19.70;99.90;;;;;;5032549;28;20462;-72
2022/07/07 04:22:22;;;;;;;2.22;0.10;;;19.60;99.90;;;;;;5032438;28;20029;-71
2022/07/07 04:24:49;;;;;;;0.45;0.08;;;19.60;99.90;;;;;;5029678;28;20021;-71
2022/07/07 04:27:16;;;;;;;0.80;0.20;;;19.50;99.90;;;;;;5035570;28;20076;-70
2022/07/07 04:29:44;;;;;;;1.60;0.35;;;19.40;99.90;;;;;;5029230;28;20041;-72
2022/07/07 04:32:12;;;;;;;0.28;0.10;;;19.40;99.90;;;;;;5032613;28;20451;-72
2022/07/07 04:34:39;;;;;;;0.75;0.20;;;19.30;99.90;;;;;;5031116;28;20029;-72
2022/07/07 04:37:06;;;;;;;2.92;0.30;;;19.40;99.90;;;;;;5030817;28;20073;-71
2022/07/07 04:39:34;;;;;;;1.50;0.32;;;19.30;99.90;;;;;;5029259;28;20045;-72
2022/07/07 04:42:01;;;;;;;1.08;0.20;;;19.40;99.90;;;;;;5028432;28;20053;-71
2022/07/07 04:44:28;;;;;;;2.03;0.13;;;19.50;99.90;;;;;;5030141;28;20175;-71
2022/07/07 04:46:56;;;;;;;1.00;0.20;;;19.60;99.90;;;;;;5028541;28;20028;-71
2022/07/07 04:49:24;;;;;;;1.05;0.10;;;19.60;99.90;;;;;;5036544;28;20025;-71
2022/07/07 04:51:51;;;;;;;1.85;0.40;;;19.60;99.90;;;;;;5012072;28;20037;-72
2022/07/07 04:54:18;;;;;;;1.10;0.22;;;19.60;99.90;;;;;;5028025;28;20459;-72
2022/07/07 04:56:46;;;;;;;0.40;0.20;;;19.50;99.90;;;;;;5029891;28;20884;-73
2022/07/07 04:59:13;;;;;;;0.35;0.10;;;19.50;99.90;;;;;;5028118;28;20053;-72
2022/07/07 05:01:41;;;;;;;0.88;0.20;;;19.40;99.90;;;;;;5031952;28;20032;-70
2022/07/07 05:04:08;;;;;;;0.88;0.30;;;19.20;99.90;;;;;;5035179;28;20148;-71
2022/07/07 05:06:36;;;;;;;1.67;0.45;;;19.20;99.90;;;;;;5035481;28;20120;-71
2022/07/07 05:09:09;;;;;;;0.80;0.50;;;19.20;99.90;;;;;;5026571;28;20035;-72
2022/07/07 05:11:37;;;;;;;1.15;0.57;;;19.30;99.90;;;;;;5032665;28;20837;-72
2022/07/07 05:14:04;;;;;;;1.10;0.10;;;19.30;99.90;;;;;;5027555;28;20128;-74
2022/07/07 05:16:32;;;;;;;1.55;0.15;;;19.30;99.90;;;;;;5029666;28;20064;-73
2022/07/07 05:18:59;;;;;;;0.63;0.50;;;19.30;99.90;;;;;;5032271;28;20195;-71
2022/07/07 05:21:26;;;;;;;0.98;0.30;;;19.30;99.90;;;;;;5026578;28;20419;-71
2022/07/07 05:23:54;;;;;;;0.60;0.28;;;19.20;99.90;;;;;;5029124;28;20037;-72
2022/07/07 05:26:21;;;;;;;2.13;0.38;;;19.20;99.90;;;;;;5027881;28;20128;-71
2022/07/07 05:28:49;;;;;;;1.17;0.20;;;19.20;99.90;;;;;;5031673;28;20096;-72
2022/07/07 05:31:16;;;;;;;0.10;0.10;;;19.20;99.90;;;;;;5034812;28;20038;-74
2022/07/07 05:33:44;;;;;;;0.98;0.20;;;19.20;99.90;;;;;;5036314;28;20029;-72
2022/07/07 05:36:11;;;;;;;0.57;0.20;;;19.20;99.90;;;;;;5034088;28;20340;-71
2022/07/07 05:38:39;;;;;;;1.38;0.32;;;19.20;99.90;;;;;;5033044;28;20086;-71
2022/07/07 05:41:06;;;;;;;0.45;0.10;;;19.20;99.90;;;;;;5044617;28;20028;-72
2022/07/07 05:43:34;;;;;;;1.33;0.30;;;19.10;99.90;;;;;;5040854;28;20090;-72
2022/07/07 05:46:01;;;;;;;0.93;0.25;;;19.10;99.90;;;;;;5031395;28;20022;-71
2022/07/07 05:48:29;;;;;;;0.10;0.03;;;19.10;99.90;;;;;;5034083;28;20337;-72
2022/07/07 05:50:56;;;;;;;1.17;0.10;;;19.10;99.90;;;;;;5038725;28;20332;-72
2022/07/07 05:53:23;;;;;;;0.70;0.20;;;19.10;99.90;;;;;;5031820;28;20056;-73
2022/07/07 05:55:51;;;;;;;2.90;0.22;;;19.10;99.90;;;;;;5035231;28;20152;-72
2022/07/07 05:58:19;;;;;;;0.25;0.10;;;19.10;99.90;;;;;;5042676;28;20033;-71
2022/07/07 06:00:47;;;;;;;3.17;0.20;;;19.10;99.90;;;;;;5021975;28;20402;-71
2022/07/07 06:03:14;;;;;;;1.27;0.40;;;19.10;99.90;;;;;;5039379;28;20029;-71
2022/07/07 06:05:42;;;;;;;2.75;0.60;;;19.10;99.90;;;;;;5039905;28;20029;-71
2022/07/07 06:08:09;;;;;;;1.52;0.60;;;19.10;99.90;;;;;;5033883;28;20033;-71
2022/07/07 06:10:37;;;;;;;1.33;0.45;;;19.10;99.90;;;;;;5034794;28;20034;-70
2022/07/07 06:13:05;;;;;;;1.48;1.10;;;19.00;99.90;;;;;;5034389;28;20041;-74
2022/07/07 06:15:33;;;;;;;3.25;1.48;;;18.90;99.90;;;;;;5041179;28;20045;-73
2022/07/07 06:18:04;;;;;;;1.38;0.40;;;19.00;99.90;;;;;;5036423;28;20610;-72
2022/07/07 06:20:32;;;;;;;1.05;0.55;;;19.10;99.90;;;;;;5033413;28;22005;-74
2022/07/07 06:22:59;;;;;;;1.23;0.20;;;19.20;99.90;;;;;;5038946;28;20041;-71
2022/07/07 06:25:27;;;;;;;1.00;0.38;;;19.20;99.90;;;;;;5038221;28;20051;-74
2022/07/07 06:27:57;;;;;;;1.23;0.47;;;19.10;99.90;;;;;;5031949;28;20033;-72
2022/07/07 06:30:26;;;;;;;0.98;0.30;;;18.90;99.90;;;;;;5035495;28;20050;-73
2022/07/07 06:32:54;;;;;;;2.42;0.50;;;18.70;99.90;;;;;;5047954;28;20186;-71
2022/07/07 06:35:24;;;;;;;3.05;0.45;;;18.50;99.90;;;;;;5047133;28;20336;-72
2022/07/07 06:37:53;;;;;;;1.25;0.55;;;18.30;99.90;;;;;;5040683;28;20021;-73
2022/07/07 06:40:21;;;;;;;6.68;1.15;;;18.10;99.90;;;;;;5036329;28;20029;-72
2022/07/07 06:42:48;;;;;;;3.83;0.93;;;17.80;99.90;;;;;;5042573;28;20443;-72
2022/07/07 06:45:16;;;;;;;4.53;0.73;;;17.60;99.90;;;;;;5043039;28;20043;-72
2022/07/07 06:47:43;;;;;;;5.57;1.08;;;17.40;99.90;;;;;;5036546;28;20036;-72
2022/07/07 06:50:11;;;;;;;4.38;0.60;;;17.30;99.90;;;;;;5046077;28;20579;-73
2022/07/07 06:52:38;;;;;;;5.20;0.63;;;17.20;99.90;;;;;;5030725;28;20052;-72
2022/07/07 06:55:06;;;;;;;7.35;0.82;;;17.00;99.90;;;;;;5041526;28;20036;-73
2022/07/07 06:57:34;;;;;;;4.65;1.13;;;16.90;99.90;;;;;;5034778;28;20044;-72
2022/07/07 07:00:01;;;;;;;6.32;2.00;;;16.70;99.90;;;;;;5034172;28;20863;-73
2022/07/07 07:02:28;;;;;;;5.18;0.60;;;16.50;99.90;;;;;;5031986;28;20033;-72
2022/07/07 07:04:56;;;;;;;2.30;0.65;;;16.40;99.90;;;;;;5030323;28;20035;-71
2022/07/07 07:07:23;;;;;;;4.60;0.85;;;16.30;99.90;;;;;;5035670;28;20036;-73
2022/07/07 07:09:51;;;;;;;2.47;0.50;;;16.30;99.90;;;;;;5013058;28;20156;-71
2022/07/07 07:12:18;;;;;;;2.72;0.80;;;16.20;99.90;;;;;;5030887;28;20731;-72
2022/07/07 07:14:45;;;;;;;7.10;1.38;;;16.10;99.90;;;;;;5036039;28;20109;-72
2022/07/07 07:17:12;;;;;;;2.28;0.60;;;16.00;99.90;;;;;;5023337;28;20053;-72
2022/07/07 07:19:40;;;;;;;7.13;1.10;;;15.80;99.90;;;;;;5030739;28;20036;-73
2022/07/07 07:22:07;;;;;;;4.30;1.10;;;15.70;99.90;;;;;;5031049;28;20034;-74
2022/07/07 07:24:34;;;;;;;4.05;0.77;;;15.60;99.90;;;;;;5031989;28;20029;-74
2022/07/07 07:27:02;;;;;;;1.85;1.23;;;15.50;99.90;;;;;;5030778;28;20083;-74
2022/07/07 07:29:29;;;;;;;3.38;0.68;;;15.30;99.90;;;;;;5030953;28;20025;-73
2022/07/07 07:31:56;;;;;;;4.28;1.90;;;15.20;99.90;;;;;;5041383;28;20095;-74
2022/07/07 07:34:24;;;;;;;3.50;0.98;;;15.10;99.90;;;;;;5040470;28;20029;-73
2022/07/07 07:36:51;;;;;;;4.55;1.27;;;15.00;99.90;;;;;;5032756;28;20434;-73
2022/07/07 07:39:18;;;;;;;7.95;1.30;;;14.80;99.90;;;;;;5037369;28;20110;-73
2022/07/07 07:41:46;;;;;;;4.22;1.52;;;14.80;99.90;;;;;;5032032;28;20085;-71
2022/07/07 07:45:09;;;;;;;6.53;1.05;;;14.70;99.90;;;;;;5032756;28;20037;-71
2022/07/07 07:47:00;;;;;;;5.47;1.42;;;14.60;99.90;;;;;;5031263;28;20700;-74
2022/07/07 07:49:27;;;;;;;6.93;2.15;;;14.50;99.90;;;;;;5032287;28;20036;-73
2022/07/07 07:51:55;;;;;;;6.25;1.90;;;14.40;99.90;;;;;;5030447;28;20041;-75
2022/07/07 07:54:22;;;;;;;11.48;5.85;;;14.30;99.90;;;;;;5035727;28;20037;-73
2022/07/07 07:56:49;;;;;;;17.02;9.98;;;14.20;99.90;;;;;;5031315;28;20031;-72
2022/07/07 07:59:19;;;;;;;9.57;3.60;;;14.20;99.90;;;;;;5033610;28;20138;-74
2022/07/07 08:01:47;;;;;;;6.35;4.85;;;14.10;99.90;;;;;;5031312;28;20026;-72
2022/07/07 08:04:14;;;;;;;11.57;6.15;;;14.00;99.90;;;;;;5033699;28;20036;-72
2022/07/07 08:06:41;;;;;;;12.55;7.47;;;14.00;99.90;;;;;;5030648;28;20036;-72
2022/07/07 08:09:09;;;;;;;15.93;9.60;;;13.90;99.90;;;;;;5035419;28;20021;-72
2022/07/07 08:11:36;;;;;;;11.15;7.68;;;13.70;99.90;;;;;;5034646;28;20029;-72
2022/07/07 08:14:04;;;;;;;44.08;18.42;;;13.70;99.90;;;;;;5029531;28;20040;-73
2022/07/07 08:16:32;;;;;;;22.92;11.60;;;13.60;99.90;;;;;;5030963;28;20048;-72
2022/07/07 08:18:59;;;;;;;25.33;10.88;;;13.50;99.90;;;;;;5028804;28;20446;-73
2022/07/07 08:21:26;;;;;;;34.47;13.35;;;13.50;99.90;;;;;;5029987;28;20155;-74
2022/07/07 08:23:53;;;;;;;37.53;10.60;;;13.40;99.90;;;;;;5029606;28;20033;-72
2022/07/07 08:26:21;;;;;;;21.95;9.18;;;13.30;99.90;;;;;;5029076;28;20162;-72
2022/07/07 08:28:48;;;;;;;25.80;7.93;;;13.30;99.90;;;;;;5031401;28;20116;-74
2022/07/07 08:31:17;;;;;;;26.50;7.75;;;13.20;99.90;;;;;;5029335;28;20155;-74
2022/07/07 08:33:44;;;;;;;23.15;7.75;;;13.10;99.90;;;;;;5029241;28;20498;-76
2022/07/07 08:36:12;;;;;;;19.23;5.07;;;13.10;99.90;;;;;;5035306;28;20059;-72
2022/07/07 08:38:40;;;;;;;11.50;4.07;;;13.00;99.90;;;;;;5030825;28;20071;-71
2022/07/07 08:41:07;;;;;;;11.82;4.03;;;13.00;99.90;;;;;;5029054;28;20030;-72
2022/07/07 08:43:35;;;;;;;7.90;2.55;;;12.90;99.90;;;;;;5031438;28;20096;-74
2022/07/07 08:46:03;;;;;;;7.45;2.42;;;12.90;99.90;;;;;;5032297;28;20061;-71
2022/07/07 08:48:30;;;;;;;17.35;3.33;;;12.80;99.90;;;;;;5029559;28;20021;-72
2022/07/07 08:51:00;;;;;;;9.82;2.83;;;12.80;99.90;;;;;;5029184;28;20049;-70
2022/07/07 08:53:32;;;;;;;11.25;2.00;;;12.70;99.90;;;;;;5034344;28;20490;-72
2022/07/07 08:56:04;;;;;;;9.55;3.08;;;12.70;99.90;;;;;;5029449;28;20026;-72
2022/07/07 08:58:35;;;;;;;11.98;2.30;;;12.60;99.90;;;;;;5033534;28;20021;-74
2022/07/07 09:01:09;;;;;;;6.07;1.65;;;12.60;99.90;;;;;;5030922;28;20137;-76
2022/07/07 09:03:36;;;;;;;4.85;1.33;;;12.50;99.90;;;;;;5027662;28;20466;-77
2022/07/07 09:06:04;;;;;;;3.50;1.55;;;12.50;99.90;;;;;;5030530;28;20423;-74
2022/07/07 09:08:33;;;;;;;11.77;2.33;;;12.40;99.90;;;;;;5030778;28;20471;-72
2022/07/07 09:11:00;;;;;;;5.07;1.60;;;12.40;99.90;;;;;;5028453;28;20041;-72
2022/07/07 09:13:32;;;;;;;2.72;0.88;;;12.40;99.90;;;;;;5031705;28;20136;-74
2022/07/07 09:16:05;;;;;;;3.35;0.93;;;12.30;99.90;;;;;;5031791;28;20411;-72
2022/07/07 09:18:38;;;;;;;4.13;1.02;;;12.30;99.90;;;;;;5030726;28;20051;-73
2022/07/07 09:21:31;;;;;;;2.08;0.68;;;12.30;99.90;;;;;;5031255;28;20021;-75
2022/07/07 09:24:00;;;;;;;3.53;0.60;;;12.20;99.90;;;;;;5031495;28;20032;-75
2022/07/07 09:26:37;;;;;;;4.53;0.50;;;12.20;99.90;;;;;;5040639;28;20037;-74
2022/07/07 09:29:10;;;;;;;3.08;1.08;;;12.20;99.90;;;;;;5046400;28;20036;-74
2022/07/07 09:32:00;;;;;;;2.58;0.82;;;12.10;99.90;;;;;;5029079;28;20033;-73
2022/07/07 09:34:32;;;;;;;3.40;0.70;;;12.10;99.90;;;;;;5029693;28;20028;-72
2022/07/07 09:39:50;;;;;;;1.23;0.70;;;12.10;99.90;;;;;;5027974;28;20099;-72
2022/07/07 09:42:29;;;;;;;2.72;0.85;;;12.00;99.90;;;;;;5029871;28;20072;-75
2022/07/07 09:45:00;;;;;;;5.10;1.40;;;11.90;99.90;;;;;;5028386;28;20103;-73
2022/07/07 09:47:28;;;;;;;1.42;0.50;;;11.90;99.90;;;;;;5030632;28;20044;-73
2022/07/07 09:50:15;;;;;;;0.95;0.43;;;11.80;99.90;;;;;;5038594;28;20036;-73
2022/07/07 09:52:49;;;;;;;1.85;0.63;;;11.70;99.90;;;;;;5046880;28;20071;-72
2022/07/07 09:55:16;;;;;;;2.50;1.20;;;11.70;99.90;;;;;;5045924;28;20045;-75
2022/07/07 09:57:44;;;;;;;3.50;1.83;;;11.60;99.90;;;;;;5045819;28;20032;-72
2022/07/07 10:00:12;;;;;;;1.38;1.10;;;11.50;99.90;;;;;;5039532;28;20409;-73
2022/07/07 10:02:41;;;;;;;2.90;1.75;;;11.40;99.90;;;;;;5046882;28;20112;-73
2022/07/07 10:05:09;;;;;;;4.32;1.90;;;11.40;99.90;;;;;;5027903;28;20025;-73
2022/07/07 10:07:37;;;;;;;3.33;2.25;;;11.40;99.90;;;;;;5031573;28;20060;-72
2022/07/07 10:10:08;;;;;;;3.28;2.15;;;11.30;99.90;;;;;;5029359;28;20029;-72
2022/07/07 10:12:44;;;;;;;3.67;2.78;;;11.20;99.90;;;;;;5029683;28;20100;-74
2022/07/07 10:15:12;;;;;;;5.05;3.00;;;11.20;99.90;;;;;;5032017;28;20033;-74
2022/07/07 10:17:44;;;;;;;3.30;2.65;;;11.20;99.90;;;;;;5018554;28;20139;-76
2022/07/07 10:20:13;;;;;;;3.47;2.83;;;11.10;99.90;;;;;;5031987;28;20606;-75
2022/07/07 10:22:40;;;;;;;3.15;2.17;;;11.10;99.90;;;;;;5033629;28;20037;-75
2022/07/07 10:25:09;;;;;;;4.63;2.10;;;11.10;99.90;;;;;;5029937;28;20021;-73
2022/07/07 10:27:43;;;;;;;2.25;1.35;;;11.00;99.90;;;;;;5031953;28;20075;-74
2022/07/07 10:30:27;;;;;;;3.08;1.33;;;11.00;99.90;;;;;;5034357;28;20403;-76
2022/07/07 10:32:55;;;;;;;2.58;1.20;;;10.90;99.90;;;;;;5030572;28;20495;-72
2022/07/07 10:35:23;;;;;;;3.53;1.88;;;10.80;99.90;;;;;;5031734;28;20087;-72
2022/07/07 10:37:55;;;;;;;3.90;2.25;;;10.80;99.90;;;;;;5034875;28;20033;-74
2022/07/07 10:40:31;;;;;;;4.40;1.48;;;10.80;99.90;;;;;;5032667;28;20032;-77
2022/07/07 10:42:58;;;;;;;;;;;10.80;99.90;;;;;;5031009;28;20033;-76
2022/07/07 10:45:28;;;;;;;1.77;0.95;;;10.80;99.90;;;;;;5039350;28;20270;-75
2022/07/07 10:47:55;;;;;;;1.10;0.80;;;10.70;99.90;;;;;;5031346;28;20032;-75
2022/07/07 10:50:32;;;;;;;1.42;0.68;;;10.70;99.90;;;;;;5036995;28;20029;-75
2022/07/07 10:53:01;;;;;;;1.08;0.60;;;10.70;99.90;;;;;;5034501;28;20048;-75
2022/07/07 10:55:56;;;;;;;1.55;0.50;;;10.70;99.90;;;;;;5032323;28;20466;-75
2022/07/07 10:59:02;;;;;;;0.88;0.50;;;10.70;99.90;;;;;;5026066;28;20044;-75
2022/07/07 11:01:32;;;;;;;0.60;0.32;;;10.60;99.90;;;;;;5032432;28;20069;-75
2022/07/07 11:04:00;;;;;;;0.30;0.20;;;10.60;99.90;;;;;;5031043;28;20116;-75
2022/07/07 11:06:28;;;;;;;3.38;0.95;;;10.60;99.90;;;;;;5041151;28;20018;-73
2022/07/07 11:09:05;;;;;;;2.10;0.40;;;10.60;99.90;;;;;;5035422;28;20045;-74
2022/07/07 11:11:32;;;;;;;0.57;0.20;;;10.60;99.90;;;;;;5031051;28;20032;-74
2022/07/07 11:14:05;;;;;;;2.17;0.40;;;10.60;99.90;;;;;;5035907;28;20043;-73
2022/07/07 11:16:32;;;;;;;0.77;0.10;;;10.50;99.90;;;;;;5032448;28;20029;-75
2022/07/07 11:19:03;;;;;;;1.00;0.60;;;10.50;99.90;;;;;;5038065;28;20456;-73
2022/07/07 11:21:45;;;;;;;1.50;1.00;;;10.40;99.90;;;;;;5034835;28;20032;-73
2022/07/07 11:24:26;;;;;;;1.50;0.70;;;10.40;99.90;;;;;;5030581;28;20033;-75
2022/07/07 11:27:04;;;;;;;2.05;0.50;;;10.40;99.90;;;;;;5022588;28;20034;-75
2022/07/07 11:29:32;;;;;;;1.17;0.30;;;10.50;99.90;;;;;;5032089;28;20036;-74
2022/07/07 11:32:10;;;;;;;1.38;0.70;;;10.50;99.90;;;;;;5030535;28;20044;-74
2022/07/07 11:34:42;;;;;;;0.88;0.63;;;10.60;99.90;;;;;;5034263;28;20121;-72
2022/07/07 11:37:21;;;;;;;0.40;0.40;;;10.60;99.90;;;;;;5032242;28;20061;-74
2022/07/07 11:39:49;;;;;;;0.38;0.38;;;10.60;99.90;;;;;;5029351;28;20109;-74
2022/07/07 11:42:16;;;;;;;0.45;0.20;;;10.60;99.90;;;;;;5034728;28;20434;-73
2022/07/07 11:44:43;;;;;;;0.47;0.32;;;10.60;99.90;;;;;;5033331;28;20350;-73
2022/07/07 11:47:11;;;;;;;0.82;0.40;;;10.60;99.90;;;;;;5033409;28;20033;-74
2022/07/07 11:49:39;;;;;;;0.82;0.65;;;10.50;99.90;;;;;;5030679;28;20025;-73
2022/07/07 11:52:11;;;;;;;0.88;0.40;;;10.50;99.90;;;;;;5031867;28;20029;-72
2022/07/07 11:54:48;;;;;;;1.48;0.68;;;10.40;99.90;;;;;;5034631;28;20021;-73
2022/07/07 11:57:33;;;;;;;2.40;0.80;;;10.30;99.90;;;;;;5027979;28;20078;-71
2022/07/07 12:00:30;;;;;;;1.67;0.75;;;10.20;99.90;;;;;;5046657;28;20341;-73
2022/07/07 12:03:00;;;;;;;2.85;1.08;;;10.10;99.90;;;;;;5047111;28;20517;-74
2022/07/07 12:05:33;;;;;;;1.88;0.70;;;10.00;99.90;;;;;;5047198;28;20340;-76
2022/07/07 12:08:08;;;;;;;2.15;0.85;;;9.90;99.90;;;;;;5047065;28;20147;-76
2022/07/07 12:11:05;;;;;;;1.52;0.55;;;9.80;99.90;;;;;;5041479;28;20057;-73
2022/07/07 12:13:33;;;;;;;2.30;1.13;;;9.80;99.90;;;;;;5026044;28;20554;-76
2022/07/07 12:16:03;;;;;;;2.05;0.90;;;9.70;99.90;;;;;;5045547;28;20044;-77
2022/07/07 12:18:35;;;;;;;1.48;0.57;;;9.70;99.90;;;;;;5054617;28;20111;-77
2022/07/07 12:21:15;;;;;;;1.10;0.70;;;9.60;99.90;;;;;;5038972;28;20025;-73
2022/07/07 12:23:45;;;;;;;1.10;0.45;;;9.60;99.90;;;;;;5043333;28;20035;-73
2022/07/07 12:26:17;;;;;;;3.75;1.17;;;9.50;99.90;;;;;;5051385;28;20068;-75
2022/07/07 12:28:45;;;;;;;1.17;0.40;;;9.50;99.90;;;;;;5041260;28;20320;-74
2022/07/07 12:31:20;;;;;;;1.25;0.60;;;9.50;99.90;;;;;;5034613;28;20055;-75
2022/07/07 12:33:48;;;;;;;0.90;0.60;;;9.50;99.90;;;;;;5030357;28;20029;-74
2022/07/07 12:36:18;;;;;;;0.55;0.40;;;9.40;99.90;;;;;;5029171;28;20025;-76
2022/07/07 12:38:51;;;;;;;0.50;0.38;;;9.40;99.90;;;;;;5030374;28;20029;-76
2022/07/07 12:41:32;;;;;;;1.45;0.50;;;9.40;99.90;;;;;;5031576;28;20090;-75
2022/07/07 12:44:21;;;;;;;0.40;0.35;;;9.40;99.90;;;;;;5032077;28;20026;-76
2022/07/07 12:46:49;;;;;;;1.23;0.50;;;9.40;99.90;;;;;;5036312;28;20524;-75
2022/07/07 12:49:16;;;;;;;1.95;1.00;;;9.30;99.90;;;;;;5059461;28;20044;-74
2022/07/07 12:51:49;;;;;;;3.58;1.45;;;9.30;99.90;;;;;;5046128;28;20033;-75
2022/07/07 12:54:28;;;;;;;2.80;1.58;;;9.30;99.90;;;;;;5048813;28;20061;-73
2022/07/07 12:57:07;;;;;;;4.75;1.55;;;9.20;99.90;;;;;;5053806;28;20076;-74
2022/07/07 12:59:40;;;;;;;2.28;1.05;;;9.20;99.90;;;;;;5044045;28;20421;-76
2022/07/07 13:02:10;;;;;;;1.73;0.80;;;9.10;99.90;;;;;;5045280;28;20101;-74